sensor_id;sensor_type;location;lat;lon;timestamp;P1;durP1;ratioP1;P2;durP2;ratioP2
781;SDS011;374;52.568;13.402;2023-11-19T00:01:33;14.33;;;10.43;;
781;SDS011;374;52.568;13.402;2023-11-19T00:04:18;13.07;;;9.40;;
781;SDS011;374;52.568;13.402;2023-11-19T00:07:00;13.30;;;10.07;;
781;SDS011;374;52.568;13.402;2023-11-19T00:09:36;11.40;;;9.00;;
781;SDS011;374;52.568;13.402;2023-11-19T00:12:16;12.63;;;9.90;;
781;SDS011;374;52.568;13.402;2023-11-19T00:15:20;10.80;;;9.70;;
781;SDS011;374;52.568;13.402;2023-11-19T00:20:39;13.57;;;9.67;;
781;SDS011;374;52.568;13.402;2023-11-19T00:26:32;10.77;;;9.67;;
781;SDS011;374;52.568;13.402;2023-11-19T00:29:07;11.97;;;9.87;;
781;SDS011;374;52.568;13.402;2023-11-19T00:31:53;11.83;;;10.50;;
781;SDS011;374;52.568;13.402;2023-11-19T00:34:59;14.03;;;9.67;;
781;SDS011;374;52.568;13.402;2023-11-19T00:37:28;10.33;;;9.20;;
781;SDS011;374;52.568;13.402;2023-11-19T00:40:17;12.33;;;10.10;;
781;SDS011;374;52.568;13.402;2023-11-19T00:43:16;12.67;;;9.07;;
781;SDS011;374;52.568;13.402;2023-11-19T00:45:44;11.10;;;9.70;;
781;SDS011;374;52.568;13.402;2023-11-19T00:48:10;14.10;;;10.10;;
781;SDS011;374;52.568;13.402;2023-11-19T00:50:35;10.60;;;9.20;;
781;SDS011;374;52.568;13.402;2023-11-19T00:53:01;10.10;;;9.10;;
781;SDS011;374;52.568;13.402;2023-11-19T00:55:29;12.73;;;9.60;;
781;SDS011;374;52.568;13.402;2023-11-19T00:57:54;12.37;;;8.83;;
781;SDS011;374;52.568;13.402;2023-11-19T01:00:21;10.73;;;8.77;;
781;SDS011;374;52.568;13.402;2023-11-19T01:02:49;12.63;;;9.30;;
781;SDS011;374;52.568;13.402;2023-11-19T01:05:15;11.87;;;10.10;;
781;SDS011;374;52.568;13.402;2023-11-19T01:07:40;13.50;;;10.40;;
781;SDS011;374;52.568;13.402;2023-11-19T01:10:06;9.70;;;8.67;;
781;SDS011;374;52.568;13.402;2023-11-19T01:12:33;9.40;;;8.43;;
781;SDS011;374;52.568;13.402;2023-11-19T01:14:59;9.60;;;8.43;;
781;SDS011;374;52.568;13.402;2023-11-19T01:17:24;10.00;;;8.20;;
781;SDS011;374;52.568;13.402;2023-11-19T01:19:50;13.77;;;9.60;;
781;SDS011;374;52.568;13.402;2023-11-19T01:22:19;11.77;;;8.93;;
781;SDS011;374;52.568;13.402;2023-11-19T01:24:46;14.53;;;10.03;;
781;SDS011;374;52.568;13.402;2023-11-19T01:27:12;10.53;;;8.23;;
781;SDS011;374;52.568;13.402;2023-11-19T01:29:37;10.77;;;8.73;;
781;SDS011;374;52.568;13.402;2023-11-19T01:32:03;13.70;;;9.17;;
781;SDS011;374;52.568;13.402;2023-11-19T01:34:29;12.93;;;9.43;;
781;SDS011;374;52.568;13.402;2023-11-19T01:37:00;13.47;;;8.40;;
781;SDS011;374;52.568;13.402;2023-11-19T01:39:26;11.23;;;8.60;;
781;SDS011;374;52.568;13.402;2023-11-19T01:41:52;9.03;;;8.13;;
781;SDS011;374;52.568;13.402;2023-11-19T01:44:19;12.77;;;9.13;;
781;SDS011;374;52.568;13.402;2023-11-19T01:46:45;12.10;;;9.40;;
781;SDS011;374;52.568;13.402;2023-11-19T01:49:13;11.10;;;9.00;;
781;SDS011;374;52.568;13.402;2023-11-19T01:51:40;9.93;;;8.63;;
781;SDS011;374;52.568;13.402;2023-11-19T01:54:13;9.70;;;8.20;;
781;SDS011;374;52.568;13.402;2023-11-19T01:56:40;11.90;;;9.20;;
781;SDS011;374;52.568;13.402;2023-11-19T01:59:06;9.93;;;8.87;;
781;SDS011;374;52.568;13.402;2023-11-19T02:01:34;9.70;;;8.47;;
781;SDS011;374;52.568;13.402;2023-11-19T02:04:04;11.30;;;9.97;;
781;SDS011;374;52.568;13.402;2023-11-19T02:06:31;11.23;;;8.40;;
781;SDS011;374;52.568;13.402;2023-11-19T02:08:59;10.93;;;8.67;;
781;SDS011;374;52.568;13.402;2023-11-19T02:11:25;10.40;;;7.80;;
781;SDS011;374;52.568;13.402;2023-11-19T02:13:54;12.60;;;8.70;;
781;SDS011;374;52.568;13.402;2023-11-19T02:16:20;9.20;;;7.90;;
781;SDS011;374;52.568;13.402;2023-11-19T02:18:46;10.50;;;7.60;;
781;SDS011;374;52.568;13.402;2023-11-19T02:21:12;11.93;;;8.97;;
781;SDS011;374;52.568;13.402;2023-11-19T02:23:39;10.40;;;8.90;;
781;SDS011;374;52.568;13.402;2023-11-19T02:29:21;9.60;;;8.37;;
781;SDS011;374;52.568;13.402;2023-11-19T02:31:47;8.77;;;7.40;;
781;SDS011;374;52.568;13.402;2023-11-19T02:34:12;9.63;;;7.90;;
781;SDS011;374;52.568;13.402;2023-11-19T02:36:38;10.00;;;8.33;;
781;SDS011;374;52.568;13.402;2023-11-19T02:39:06;10.40;;;8.50;;
781;SDS011;374;52.568;13.402;2023-11-19T02:41:35;14.57;;;8.40;;
781;SDS011;374;52.568;13.402;2023-11-19T02:44:00;12.30;;;8.43;;
781;SDS011;374;52.568;13.402;2023-11-19T02:46:26;9.33;;;8.10;;
781;SDS011;374;52.568;13.402;2023-11-19T02:48:51;10.63;;;7.90;;
781;SDS011;374;52.568;13.402;2023-11-19T02:51:17;7.73;;;6.93;;
781;SDS011;374;52.568;13.402;2023-11-19T02:53:43;9.80;;;8.00;;
781;SDS011;374;52.568;13.402;2023-11-19T02:56:09;9.70;;;7.77;;
781;SDS011;374;52.568;13.402;2023-11-19T02:58:45;7.33;;;6.63;;
781;SDS011;374;52.568;13.402;2023-11-19T03:01:11;11.40;;;7.70;;
781;SDS011;374;52.568;13.402;2023-11-19T03:03:49;8.20;;;7.40;;
781;SDS011;374;52.568;13.402;2023-11-19T03:06:19;7.90;;;6.67;;
781;SDS011;374;52.568;13.402;2023-11-19T03:08:46;8.87;;;7.63;;
781;SDS011;374;52.568;13.402;2023-11-19T03:11:12;6.83;;;6.20;;
781;SDS011;374;52.568;13.402;2023-11-19T03:13:38;7.13;;;6.27;;
781;SDS011;374;52.568;13.402;2023-11-19T03:16:04;9.63;;;6.63;;
781;SDS011;374;52.568;13.402;2023-11-19T03:18:30;8.43;;;7.33;;
781;SDS011;374;52.568;13.402;2023-11-19T03:20:55;8.20;;;6.70;;
781;SDS011;374;52.568;13.402;2023-11-19T03:23:22;6.40;;;5.80;;
781;SDS011;374;52.568;13.402;2023-11-19T03:25:48;7.47;;;6.33;;
781;SDS011;374;52.568;13.402;2023-11-19T03:28:13;8.33;;;6.50;;
781;SDS011;374;52.568;13.402;2023-11-19T03:30:39;7.13;;;6.23;;
781;SDS011;374;52.568;13.402;2023-11-19T03:33:05;8.70;;;6.00;;
781;SDS011;374;52.568;13.402;2023-11-19T03:35:30;7.00;;;6.30;;
781;SDS011;374;52.568;13.402;2023-11-19T03:37:58;9.20;;;6.80;;
781;SDS011;374;52.568;13.402;2023-11-19T03:40:23;11.40;;;6.60;;
781;SDS011;374;52.568;13.402;2023-11-19T03:42:50;6.90;;;6.27;;
781;SDS011;374;52.568;13.402;2023-11-19T03:45:15;7.40;;;6.50;;
781;SDS011;374;52.568;13.402;2023-11-19T03:47:41;7.93;;;6.57;;
781;SDS011;374;52.568;13.402;2023-11-19T03:50:07;11.57;;;7.27;;
781;SDS011;374;52.568;13.402;2023-11-19T03:52:35;8.87;;;6.60;;
781;SDS011;374;52.568;13.402;2023-11-19T03:55:02;12.50;;;7.70;;
781;SDS011;374;52.568;13.402;2023-11-19T03:57:30;7.27;;;6.30;;
781;SDS011;374;52.568;13.402;2023-11-19T03:59:58;9.73;;;7.33;;
781;SDS011;374;52.568;13.402;2023-11-19T04:02:24;10.57;;;7.40;;
781;SDS011;374;52.568;13.402;2023-11-19T04:04:52;8.13;;;7.13;;
781;SDS011;374;52.568;13.402;2023-11-19T04:07:19;9.73;;;7.47;;
781;SDS011;374;52.568;13.402;2023-11-19T04:09:45;7.97;;;7.00;;
781;SDS011;374;52.568;13.402;2023-11-19T04:12:11;7.60;;;6.87;;
781;SDS011;374;52.568;13.402;2023-11-19T04:14:37;11.10;;;7.53;;
781;SDS011;374;52.568;13.402;2023-11-19T04:17:02;9.50;;;7.70;;
781;SDS011;374;52.568;13.402;2023-11-19T04:19:28;9.40;;;7.23;;
781;SDS011;374;52.568;13.402;2023-11-19T04:21:53;8.67;;;7.27;;
781;SDS011;374;52.568;13.402;2023-11-19T04:24:19;9.23;;;8.23;;
781;SDS011;374;52.568;13.402;2023-11-19T04:26:45;7.97;;;7.03;;
781;SDS011;374;52.568;13.402;2023-11-19T04:29:11;9.77;;;7.87;;
781;SDS011;374;52.568;13.402;2023-11-19T04:31:38;8.27;;;7.47;;
781;SDS011;374;52.568;13.402;2023-11-19T04:34:04;11.37;;;8.00;;
781;SDS011;374;52.568;13.402;2023-11-19T04:36:31;9.23;;;7.77;;
781;SDS011;374;52.568;13.402;2023-11-19T04:38:58;9.80;;;8.00;;
781;SDS011;374;52.568;13.402;2023-11-19T04:41:24;10.80;;;8.47;;
781;SDS011;374;52.568;13.402;2023-11-19T04:43:50;9.00;;;7.33;;
781;SDS011;374;52.568;13.402;2023-11-19T04:46:22;9.00;;;8.10;;
781;SDS011;374;52.568;13.402;2023-11-19T04:48:48;9.93;;;7.80;;
781;SDS011;374;52.568;13.402;2023-11-19T04:51:15;9.60;;;7.70;;
781;SDS011;374;52.568;13.402;2023-11-19T04:53:40;9.43;;;7.80;;
781;SDS011;374;52.568;13.402;2023-11-19T04:56:12;14.27;;;7.80;;
781;SDS011;374;52.568;13.402;2023-11-19T04:58:38;13.03;;;8.87;;
781;SDS011;374;52.568;13.402;2023-11-19T05:01:04;10.90;;;8.70;;
781;SDS011;374;52.568;13.402;2023-11-19T05:03:32;10.30;;;8.50;;
781;SDS011;374;52.568;13.402;2023-11-19T05:05:58;11.93;;;8.53;;
781;SDS011;374;52.568;13.402;2023-11-19T05:08:24;11.50;;;9.03;;
781;SDS011;374;52.568;13.402;2023-11-19T05:10:49;10.93;;;9.10;;
781;SDS011;374;52.568;13.402;2023-11-19T05:13:15;10.23;;;7.90;;
781;SDS011;374;52.568;13.402;2023-11-19T05:15:41;11.80;;;8.30;;
781;SDS011;374;52.568;13.402;2023-11-19T05:18:07;14.03;;;9.33;;
781;SDS011;374;52.568;13.402;2023-11-19T05:20:33;9.00;;;7.93;;
781;SDS011;374;52.568;13.402;2023-11-19T05:22:59;11.27;;;9.40;;
781;SDS011;374;52.568;13.402;2023-11-19T05:25:25;11.17;;;8.90;;
781;SDS011;374;52.568;13.402;2023-11-19T05:27:51;10.03;;;7.97;;
781;SDS011;374;52.568;13.402;2023-11-19T05:30:17;11.20;;;8.40;;
781;SDS011;374;52.568;13.402;2023-11-19T05:32:43;9.80;;;7.97;;
781;SDS011;374;52.568;13.402;2023-11-19T05:35:08;10.37;;;8.70;;
781;SDS011;374;52.568;13.402;2023-11-19T05:37:34;10.40;;;7.53;;
781;SDS011;374;52.568;13.402;2023-11-19T05:40:00;8.83;;;7.97;;
781;SDS011;374;52.568;13.402;2023-11-19T05:42:39;10.60;;;7.37;;
781;SDS011;374;52.568;13.402;2023-11-19T05:45:05;11.57;;;8.33;;
781;SDS011;374;52.568;13.402;2023-11-19T05:47:32;8.70;;;7.33;;
781;SDS011;374;52.568;13.402;2023-11-19T05:49:58;9.90;;;7.43;;
781;SDS011;374;52.568;13.402;2023-11-19T05:52:24;8.47;;;7.33;;
781;SDS011;374;52.568;13.402;2023-11-19T05:54:49;8.60;;;7.50;;
781;SDS011;374;52.568;13.402;2023-11-19T05:57:17;10.00;;;8.23;;
781;SDS011;374;52.568;13.402;2023-11-19T05:59:48;11.07;;;8.23;;
781;SDS011;374;52.568;13.402;2023-11-19T06:02:14;12.17;;;8.83;;
781;SDS011;374;52.568;13.402;2023-11-19T06:04:40;8.23;;;7.40;;
781;SDS011;374;52.568;13.402;2023-11-19T06:07:30;9.67;;;8.23;;
781;SDS011;374;52.568;13.402;2023-11-19T06:09:56;9.83;;;7.10;;
781;SDS011;374;52.568;13.402;2023-11-19T06:12:21;8.80;;;7.90;;
781;SDS011;374;52.568;13.402;2023-11-19T06:14:47;11.17;;;7.40;;
781;SDS011;374;52.568;13.402;2023-11-19T06:17:12;9.57;;;7.70;;
781;SDS011;374;52.568;13.402;2023-11-19T06:19:38;13.17;;;7.70;;
781;SDS011;374;52.568;13.402;2023-11-19T06:22:04;7.63;;;6.77;;
781;SDS011;374;52.568;13.402;2023-11-19T06:24:29;9.50;;;7.93;;
781;SDS011;374;52.568;13.402;2023-11-19T06:26:55;9.33;;;7.00;;
781;SDS011;374;52.568;13.402;2023-11-19T06:29:20;9.00;;;8.10;;
781;SDS011;374;52.568;13.402;2023-11-19T06:31:46;8.53;;;7.73;;
781;SDS011;374;52.568;13.402;2023-11-19T06:34:13;8.40;;;7.50;;
781;SDS011;374;52.568;13.402;2023-11-19T06:36:39;8.73;;;7.10;;
781;SDS011;374;52.568;13.402;2023-11-19T06:39:05;9.77;;;7.93;;
781;SDS011;374;52.568;13.402;2023-11-19T06:41:30;8.27;;;7.40;;
781;SDS011;374;52.568;13.402;2023-11-19T06:43:56;9.70;;;6.70;;
781;SDS011;374;52.568;13.402;2023-11-19T06:46:21;10.00;;;7.37;;
781;SDS011;374;52.568;13.402;2023-11-19T06:48:47;8.70;;;7.80;;
781;SDS011;374;52.568;13.402;2023-11-19T06:51:12;8.40;;;7.10;;
781;SDS011;374;52.568;13.402;2023-11-19T06:53:38;9.20;;;7.30;;
781;SDS011;374;52.568;13.402;2023-11-19T06:56:19;8.57;;;7.27;;
781;SDS011;374;52.568;13.402;2023-11-19T06:58:46;9.30;;;8.20;;
781;SDS011;374;52.568;13.402;2023-11-19T07:01:12;9.13;;;7.93;;
781;SDS011;374;52.568;13.402;2023-11-19T07:03:38;8.17;;;6.90;;
781;SDS011;374;52.568;13.402;2023-11-19T07:06:04;7.97;;;6.60;;
781;SDS011;374;52.568;13.402;2023-11-19T07:08:30;7.40;;;6.60;;
781;SDS011;374;52.568;13.402;2023-11-19T07:10:56;6.97;;;6.27;;
781;SDS011;374;52.568;13.402;2023-11-19T07:13:21;7.63;;;6.17;;
781;SDS011;374;52.568;13.402;2023-11-19T07:15:47;9.93;;;8.20;;
781;SDS011;374;52.568;13.402;2023-11-19T07:18:13;8.00;;;6.00;;
781;SDS011;374;52.568;13.402;2023-11-19T07:20:48;7.83;;;6.87;;
781;SDS011;374;52.568;13.402;2023-11-19T07:23:28;7.30;;;6.40;;
781;SDS011;374;52.568;13.402;2023-11-19T07:25:53;7.23;;;6.20;;
781;SDS011;374;52.568;13.402;2023-11-19T07:28:19;7.93;;;6.17;;
781;SDS011;374;52.568;13.402;2023-11-19T07:30:44;7.37;;;6.03;;
781;SDS011;374;52.568;13.402;2023-11-19T07:33:10;6.70;;;5.97;;
781;SDS011;374;52.568;13.402;2023-11-19T07:35:35;9.53;;;7.40;;
781;SDS011;374;52.568;13.402;2023-11-19T07:38:01;7.10;;;6.40;;
781;SDS011;374;52.568;13.402;2023-11-19T07:40:27;8.30;;;6.20;;
781;SDS011;374;52.568;13.402;2023-11-19T07:42:52;5.77;;;5.17;;
781;SDS011;374;52.568;13.402;2023-11-19T07:45:19;7.23;;;5.37;;
781;SDS011;374;52.568;13.402;2023-11-19T07:47:44;5.97;;;5.37;;
781;SDS011;374;52.568;13.402;2023-11-19T07:50:10;6.60;;;5.40;;
781;SDS011;374;52.568;13.402;2023-11-19T07:52:36;6.57;;;5.93;;
781;SDS011;374;52.568;13.402;2023-11-19T07:55:02;8.70;;;6.53;;
781;SDS011;374;52.568;13.402;2023-11-19T07:57:32;6.50;;;5.63;;
781;SDS011;374;52.568;13.402;2023-11-19T07:59:58;7.73;;;6.20;;
781;SDS011;374;52.568;13.402;2023-11-19T08:02:26;10.63;;;6.83;;
781;SDS011;374;52.568;13.402;2023-11-19T08:04:52;6.43;;;5.80;;
781;SDS011;374;52.568;13.402;2023-11-19T08:07:20;6.60;;;5.67;;
781;SDS011;374;52.568;13.402;2023-11-19T08:09:49;6.83;;;5.80;;
781;SDS011;374;52.568;13.402;2023-11-19T08:12:14;10.50;;;6.80;;
781;SDS011;374;52.568;13.402;2023-11-19T08:14:42;6.37;;;5.77;;
781;SDS011;374;52.568;13.402;2023-11-19T08:17:08;7.97;;;6.57;;
781;SDS011;374;52.568;13.402;2023-11-19T08:19:34;6.90;;;6.20;;
781;SDS011;374;52.568;13.402;2023-11-19T08:22:03;7.43;;;6.57;;
781;SDS011;374;52.568;13.402;2023-11-19T08:24:29;7.57;;;6.40;;
781;SDS011;374;52.568;13.402;2023-11-19T08:26:55;8.63;;;6.07;;
781;SDS011;374;52.568;13.402;2023-11-19T08:29:20;7.37;;;6.50;;
781;SDS011;374;52.568;13.402;2023-11-19T08:31:46;9.17;;;6.70;;
781;SDS011;374;52.568;13.402;2023-11-19T08:34:12;7.30;;;5.90;;
781;SDS011;374;52.568;13.402;2023-11-19T08:36:37;7.63;;;6.93;;
781;SDS011;374;52.568;13.402;2023-11-19T08:39:03;7.33;;;6.13;;
781;SDS011;374;52.568;13.402;2023-11-19T08:41:28;7.43;;;6.60;;
781;SDS011;374;52.568;13.402;2023-11-19T08:43:56;9.43;;;8.53;;
781;SDS011;374;52.568;13.402;2023-11-19T08:46:23;8.63;;;7.47;;
781;SDS011;374;52.568;13.402;2023-11-19T08:48:49;7.50;;;6.70;;
781;SDS011;374;52.568;13.402;2023-11-19T08:51:14;9.00;;;8.00;;
781;SDS011;374;52.568;13.402;2023-11-19T08:53:40;10.13;;;7.47;;
781;SDS011;374;52.568;13.402;2023-11-19T08:56:05;9.53;;;8.40;;
781;SDS011;374;52.568;13.402;2023-11-19T08:58:31;10.23;;;8.00;;
781;SDS011;374;52.568;13.402;2023-11-19T09:00:57;7.50;;;6.70;;
781;SDS011;374;52.568;13.402;2023-11-19T09:03:25;7.90;;;6.93;;
781;SDS011;374;52.568;13.402;2023-11-19T09:05:51;13.37;;;8.80;;
781;SDS011;374;52.568;13.402;2023-11-19T09:08:17;9.07;;;7.17;;
781;SDS011;374;52.568;13.402;2023-11-19T09:10:42;9.50;;;6.77;;
781;SDS011;374;52.568;13.402;2023-11-19T09:13:08;8.17;;;6.87;;
781;SDS011;374;52.568;13.402;2023-11-19T09:15:33;8.33;;;7.00;;
781;SDS011;374;52.568;13.402;2023-11-19T09:17:59;10.07;;;6.67;;
781;SDS011;374;52.568;13.402;2023-11-19T09:20:25;9.00;;;6.43;;
781;SDS011;374;52.568;13.402;2023-11-19T09:22:50;9.00;;;7.60;;
781;SDS011;374;52.568;13.402;2023-11-19T09:25:19;11.20;;;7.70;;
781;SDS011;374;52.568;13.402;2023-11-19T09:27:53;9.13;;;7.47;;
781;SDS011;374;52.568;13.402;2023-11-19T09:30:32;9.03;;;8.10;;
781;SDS011;374;52.568;13.402;2023-11-19T09:32:58;8.63;;;6.63;;
781;SDS011;374;52.568;13.402;2023-11-19T09:35:24;6.87;;;6.10;;
781;SDS011;374;52.568;13.402;2023-11-19T09:37:50;6.43;;;5.77;;
781;SDS011;374;52.568;13.402;2023-11-19T09:40:15;7.53;;;6.73;;
781;SDS011;374;52.568;13.402;2023-11-19T09:42:43;7.70;;;6.77;;
781;SDS011;374;52.568;13.402;2023-11-19T09:45:16;9.40;;;6.00;;
781;SDS011;374;52.568;13.402;2023-11-19T09:47:45;12.20;;;6.03;;
781;SDS011;374;52.568;13.402;2023-11-19T09:50:14;6.23;;;5.53;;
781;SDS011;374;52.568;13.402;2023-11-19T09:52:49;6.63;;;5.53;;
781;SDS011;374;52.568;13.402;2023-11-19T09:55:25;9.83;;;6.30;;
781;SDS011;374;52.568;13.402;2023-11-19T09:57:51;8.50;;;6.13;;
781;SDS011;374;52.568;13.402;2023-11-19T10:00:18;6.30;;;5.70;;
781;SDS011;374;52.568;13.402;2023-11-19T10:02:45;8.90;;;5.10;;
781;SDS011;374;52.568;13.402;2023-11-19T10:05:11;9.47;;;5.47;;
781;SDS011;374;52.568;13.402;2023-11-19T10:07:45;7.30;;;5.37;;
781;SDS011;374;52.568;13.402;2023-11-19T10:10:11;8.50;;;5.83;;
781;SDS011;374;52.568;13.402;2023-11-19T10:12:43;10.70;;;5.40;;
781;SDS011;374;52.568;13.402;2023-11-19T10:15:09;8.17;;;5.70;;
781;SDS011;374;52.568;13.402;2023-11-19T10:17:44;6.80;;;4.73;;
781;SDS011;374;52.568;13.402;2023-11-19T10:20:10;11.47;;;5.13;;
781;SDS011;374;52.568;13.402;2023-11-19T10:22:39;4.70;;;4.20;;
781;SDS011;374;52.568;13.402;2023-11-19T10:25:21;7.70;;;4.90;;
781;SDS011;374;52.568;13.402;2023-11-19T10:27:48;6.73;;;4.87;;
781;SDS011;374;52.568;13.402;2023-11-19T10:35:36;8.13;;;4.83;;
781;SDS011;374;52.568;13.402;2023-11-19T10:38:19;5.70;;;4.30;;
781;SDS011;374;52.568;13.402;2023-11-19T10:40:45;16.20;;;4.90;;
781;SDS011;374;52.568;13.402;2023-11-19T10:43:11;6.67;;;5.00;;
781;SDS011;374;52.568;13.402;2023-11-19T10:45:44;8.03;;;4.83;;
781;SDS011;374;52.568;13.402;2023-11-19T10:48:10;10.73;;;4.20;;
781;SDS011;374;52.568;13.402;2023-11-19T10:50:49;7.53;;;5.00;;
781;SDS011;374;52.568;13.402;2023-11-19T10:53:21;5.90;;;4.60;;
781;SDS011;374;52.568;13.402;2023-11-19T10:56:16;12.07;;;5.00;;
781;SDS011;374;52.568;13.402;2023-11-19T10:58:45;9.10;;;4.60;;
781;SDS011;374;52.568;13.402;2023-11-19T11:01:13;6.07;;;4.37;;
781;SDS011;374;52.568;13.402;2023-11-19T11:03:43;7.30;;;4.70;;
781;SDS011;374;52.568;13.402;2023-11-19T11:06:10;7.00;;;4.50;;
781;SDS011;374;52.568;13.402;2023-11-19T11:08:38;6.90;;;4.50;;
781;SDS011;374;52.568;13.402;2023-11-19T11:11:05;8.93;;;4.57;;
781;SDS011;374;52.568;13.402;2023-11-19T11:13:32;8.97;;;4.83;;
781;SDS011;374;52.568;13.402;2023-11-19T11:15:58;11.77;;;5.20;;
781;SDS011;374;52.568;13.402;2023-11-19T11:18:24;12.63;;;6.80;;
781;SDS011;374;52.568;13.402;2023-11-19T11:20:54;18.13;;;5.80;;
781;SDS011;374;52.568;13.402;2023-11-19T11:26:43;20.00;;;6.67;;
781;SDS011;374;52.568;13.402;2023-11-19T11:29:44;16.07;;;4.97;;
781;SDS011;374;52.568;13.402;2023-11-19T11:35:24;7.80;;;4.60;;
781;SDS011;374;52.568;13.402;2023-11-19T11:38:06;13.73;;;5.20;;
781;SDS011;374;52.568;13.402;2023-11-19T11:40:33;16.13;;;5.80;;
781;SDS011;374;52.568;13.402;2023-11-19T11:43:02;13.57;;;5.57;;
781;SDS011;374;52.568;13.402;2023-11-19T11:45:39;15.70;;;6.43;;
781;SDS011;374;52.568;13.402;2023-11-19T11:48:15;11.47;;;5.83;;
781;SDS011;374;52.568;13.402;2023-11-19T11:50:49;21.70;;;6.67;;
781;SDS011;374;52.568;13.402;2023-11-19T11:53:17;10.07;;;4.90;;
781;SDS011;374;52.568;13.402;2023-11-19T11:58:25;17.67;;;6.70;;
781;SDS011;374;52.568;13.402;2023-11-19T12:00:52;25.60;;;7.93;;
781;SDS011;374;52.568;13.402;2023-11-19T12:03:21;14.27;;;7.13;;
781;SDS011;374;52.568;13.402;2023-11-19T12:05:50;19.33;;;6.93;;
781;SDS011;374;52.568;13.402;2023-11-19T12:08:19;12.63;;;6.13;;
781;SDS011;374;52.568;13.402;2023-11-19T12:10:50;19.20;;;4.60;;
781;SDS011;374;52.568;13.402;2023-11-19T12:13:18;18.73;;;7.07;;
781;SDS011;374;52.568;13.402;2023-11-19T12:18:29;25.93;;;6.20;;
781;SDS011;374;52.568;13.402;2023-11-19T12:21:01;19.73;;;7.10;;
781;SDS011;374;52.568;13.402;2023-11-19T12:23:28;19.63;;;7.00;;
781;SDS011;374;52.568;13.402;2023-11-19T12:25:54;15.40;;;7.30;;
781;SDS011;374;52.568;13.402;2023-11-19T12:28:20;19.63;;;6.57;;
781;SDS011;374;52.568;13.402;2023-11-19T12:30:49;20.63;;;6.30;;
781;SDS011;374;52.568;13.402;2023-11-19T12:33:14;24.17;;;7.00;;
781;SDS011;374;52.568;13.402;2023-11-19T12:35:44;23.43;;;6.70;;
781;SDS011;374;52.568;13.402;2023-11-19T12:38:19;16.80;;;6.77;;
781;SDS011;374;52.568;13.402;2023-11-19T12:40:46;14.77;;;5.70;;
781;SDS011;374;52.568;13.402;2023-11-19T12:43:20;15.83;;;6.77;;
781;SDS011;374;52.568;13.402;2023-11-19T12:45:47;16.40;;;6.80;;
781;SDS011;374;52.568;13.402;2023-11-19T12:48:13;18.80;;;6.93;;
781;SDS011;374;52.568;13.402;2023-11-19T12:50:54;13.43;;;7.00;;
781;SDS011;374;52.568;13.402;2023-11-19T12:53:22;17.27;;;7.03;;
781;SDS011;374;52.568;13.402;2023-11-19T12:55:49;17.63;;;8.27;;
781;SDS011;374;52.568;13.402;2023-11-19T12:58:34;29.90;;;8.73;;
781;SDS011;374;52.568;13.402;2023-11-19T13:01:01;17.63;;;7.90;;
781;SDS011;374;52.568;13.402;2023-11-19T13:03:32;25.60;;;7.20;;
781;SDS011;374;52.568;13.402;2023-11-19T13:06:05;20.23;;;6.70;;
781;SDS011;374;52.568;13.402;2023-11-19T13:08:44;17.27;;;6.03;;
781;SDS011;374;52.568;13.402;2023-11-19T13:11:13;24.47;;;6.80;;
781;SDS011;374;52.568;13.402;2023-11-19T13:16:24;18.10;;;6.30;;
781;SDS011;374;52.568;13.402;2023-11-19T13:18:50;18.20;;;5.90;;
781;SDS011;374;52.568;13.402;2023-11-19T13:21:16;22.07;;;7.93;;
781;SDS011;374;52.568;13.402;2023-11-19T13:23:42;29.43;;;7.00;;
781;SDS011;374;52.568;13.402;2023-11-19T13:26:08;22.30;;;7.10;;
781;SDS011;374;52.568;13.402;2023-11-19T13:28:34;15.03;;;6.53;;
781;SDS011;374;52.568;13.402;2023-11-19T13:30:59;23.00;;;7.60;;
781;SDS011;374;52.568;13.402;2023-11-19T13:33:25;26.13;;;6.60;;
781;SDS011;374;52.568;13.402;2023-11-19T13:35:51;25.77;;;6.13;;
781;SDS011;374;52.568;13.402;2023-11-19T13:38:17;18.23;;;5.90;;
781;SDS011;374;52.568;13.402;2023-11-19T13:40:42;25.77;;;6.87;;
781;SDS011;374;52.568;13.402;2023-11-19T13:43:08;28.80;;;7.27;;
781;SDS011;374;52.568;13.402;2023-11-19T13:45:33;16.90;;;6.67;;
781;SDS011;374;52.568;13.402;2023-11-19T13:48:02;26.33;;;7.27;;
781;SDS011;374;52.568;13.402;2023-11-19T13:50:28;17.07;;;6.87;;
781;SDS011;374;52.568;13.402;2023-11-19T13:52:56;18.90;;;7.23;;
781;SDS011;374;52.568;13.402;2023-11-19T13:55:21;19.03;;;7.83;;
781;SDS011;374;52.568;13.402;2023-11-19T13:57:54;27.37;;;7.00;;
781;SDS011;374;52.568;13.402;2023-11-19T14:00:19;22.93;;;7.33;;
781;SDS011;374;52.568;13.402;2023-11-19T14:02:47;25.77;;;6.60;;
781;SDS011;374;52.568;13.402;2023-11-19T14:05:13;28.93;;;7.20;;
781;SDS011;374;52.568;13.402;2023-11-19T14:07:42;21.23;;;7.70;;
781;SDS011;374;52.568;13.402;2023-11-19T14:10:22;31.13;;;7.37;;
781;SDS011;374;52.568;13.402;2023-11-19T14:12:48;23.43;;;7.37;;
781;SDS011;374;52.568;13.402;2023-11-19T14:15:15;25.30;;;8.93;;
781;SDS011;374;52.568;13.402;2023-11-19T14:17:43;33.20;;;7.53;;
781;SDS011;374;52.568;13.402;2023-11-19T14:20:09;29.90;;;10.17;;
781;SDS011;374;52.568;13.402;2023-11-19T14:22:39;16.13;;;6.67;;
781;SDS011;374;52.568;13.402;2023-11-19T14:25:05;20.07;;;7.70;;
781;SDS011;374;52.568;13.402;2023-11-19T14:27:35;23.57;;;8.97;;
781;SDS011;374;52.568;13.402;2023-11-19T14:30:07;26.40;;;8.67;;
781;SDS011;374;52.568;13.402;2023-11-19T14:32:36;24.13;;;8.37;;
781;SDS011;374;52.568;13.402;2023-11-19T14:35:04;28.27;;;8.73;;
781;SDS011;374;52.568;13.402;2023-11-19T14:37:34;21.90;;;7.60;;
781;SDS011;374;52.568;13.402;2023-11-19T14:40:04;34.87;;;8.77;;
781;SDS011;374;52.568;13.402;2023-11-19T14:42:32;28.47;;;8.93;;
781;SDS011;374;52.568;13.402;2023-11-19T14:44:57;29.50;;;8.50;;
781;SDS011;374;52.568;13.402;2023-11-19T14:47:23;32.50;;;8.47;;
781;SDS011;374;52.568;13.402;2023-11-19T14:49:49;22.57;;;8.40;;
781;SDS011;374;52.568;13.402;2023-11-19T14:52:15;25.63;;;9.20;;
781;SDS011;374;52.568;13.402;2023-11-19T14:54:40;26.20;;;6.93;;
781;SDS011;374;52.568;13.402;2023-11-19T14:57:06;19.27;;;7.67;;
781;SDS011;374;52.568;13.402;2023-11-19T14:59:35;39.53;;;8.30;;
781;SDS011;374;52.568;13.402;2023-11-19T15:02:02;25.87;;;7.67;;
781;SDS011;374;52.568;13.402;2023-11-19T15:04:27;27.77;;;8.30;;
781;SDS011;374;52.568;13.402;2023-11-19T15:06:56;21.93;;;7.33;;
781;SDS011;374;52.568;13.402;2023-11-19T15:09:21;22.87;;;7.60;;
781;SDS011;374;52.568;13.402;2023-11-19T15:11:47;35.87;;;10.57;;
781;SDS011;374;52.568;13.402;2023-11-19T15:14:16;32.63;;;7.60;;
781;SDS011;374;52.568;13.402;2023-11-19T15:16:43;23.90;;;7.30;;
781;SDS011;374;52.568;13.402;2023-11-19T15:19:10;27.00;;;8.10;;
781;SDS011;374;52.568;13.402;2023-11-19T15:21:35;32.47;;;7.53;;
781;SDS011;374;52.568;13.402;2023-11-19T15:24:01;21.50;;;7.83;;
781;SDS011;374;52.568;13.402;2023-11-19T15:26:29;26.47;;;7.90;;
781;SDS011;374;52.568;13.402;2023-11-19T15:28:55;16.33;;;7.07;;
781;SDS011;374;52.568;13.402;2023-11-19T15:31:22;31.60;;;10.43;;
781;SDS011;374;52.568;13.402;2023-11-19T15:33:51;29.40;;;7.77;;
781;SDS011;374;52.568;13.402;2023-11-19T15:36:17;31.80;;;9.17;;
781;SDS011;374;52.568;13.402;2023-11-19T15:38:42;33.17;;;8.30;;
781;SDS011;374;52.568;13.402;2023-11-19T15:41:08;20.30;;;8.20;;
781;SDS011;374;52.568;13.402;2023-11-19T15:43:34;32.93;;;10.50;;
781;SDS011;374;52.568;13.402;2023-11-19T15:46:00;35.50;;;8.80;;
781;SDS011;374;52.568;13.402;2023-11-19T15:48:25;24.93;;;8.07;;
781;SDS011;374;52.568;13.402;2023-11-19T15:50:51;28.73;;;7.97;;
781;SDS011;374;52.568;13.402;2023-11-19T15:53:17;18.23;;;7.67;;
781;SDS011;374;52.568;13.402;2023-11-19T15:55:43;25.83;;;7.47;;
781;SDS011;374;52.568;13.402;2023-11-19T15:58:09;35.93;;;9.60;;